Time,TemperatureF,DewpointF,PressureIn,WindDirection,WindDirectionDegrees,WindSpeedMPH,WindSpeedGustMPH,Humidity,HourlyPrecipIn,Conditions,Clouds,dailyrainin,SoftwareType,DateUTC
2013-08-17 00:02:00,69.1,65.1,30.09,NNE,22,0.0,1.1,87,0.00,,,0.00,WUHU21623XXSP,2013-08-17 05:02:00,
2013-08-17 00:07:00,69.3,65.3,30.09,NNE,22,0.0,0.0,87,0.00,,,0.00,WUHU21623XXSP,2013-08-17 05:07:00,
2013-08-17 00:12:00,69.3,65.3,30.09,NE,45,0.0,2.7,87,0.00,,,0.00,WUHU21623XXSP,2013-08-17 05:12:00,
2013-08-17 00:17:00,69.3,65.3,30.09,NE,45,0.0,2.7,87,0.00,,,0.00,WUHU21623XXSP,2013-08-17 05:17:00,
2013-08-17 00:22:00,69.1,65.1,30.09,NE,45,0.0,0.0,87,0.00,,,0.00,WUHU21623XXSP,2013-08-17 05:22:00,
2013-08-17 00:27:00,69.1,65.1,30.09,NE,45,0.0,0.0,87,0.00,,,0.00,WUHU21623XXSP,2013-08-17 05:27:00,
2013-08-17 00:32:00,69.1,65.1,30.09,ENE,67,0.0,0.0,87,0.00,,,0.00,WUHU21623XXSP,2013-08-17 05:32:00,
2013-08-17 00:37:00,69.1,65.1,30.09,ENE,67,0.0,0.0,87,0.00,,,0.00,WUHU21623XXSP,2013-08-17 05:37:00,
2013-08-17 00:42:00,68.9,64.9,30.09,ENE,67,0.0,0.0,87,0.00,,,0.00,WUHU21623XXSP,2013-08-17 05:42:00,
2013-08-17 00:47:00,68.7,64.7,30.08,ENE,67,0.0,0.0,87,0.00,,,0.00,WUHU21623XXSP,2013-08-17 05:47:00,
2013-08-17 00:52:00,68.7,64.7,30.09,ENE,67,0.0,0.0,87,0.00,,,0.00,WUHU21623XXSP,2013-08-17 05:52:00,
2013-08-17 00:57:00,68.7,64.7,30.08,ENE,67,0.0,0.0,87,0.00,,,0.00,WUHU21623XXSP,2013-08-17 05:57:00,
2013-08-17 01:02:00,68.7,64.7,30.08,ENE,67,0.0,0.0,87,0.00,,,0.00,WUHU21623XXSP,2013-08-17 06:02:00,
2013-08-17 01:07:00,68.5,64.5,30.08,ENE,67,0.0,0.0,87,0.00,,,0.00,WUHU21623XXSP,2013-08-17 06:07:00,
2013-08-17 01:12:00,68.5,64.5,30.08,ENE,67,0.0,0.0,87,0.00,,,0.00,WUHU21623XXSP,2013-08-17 06:12:00,
2013-08-17 01:17:00,68.5,64.5,30.08,ENE,67,0.0,0.0,87,0.00,,,0.00,WUHU21623XXSP,2013-08-17 06:17:00,
2013-08-17 01:22:00,68.5,64.5,30.08,NE,45,0.0,0.0,87,0.00,,,0.00,WUHU21623XXSP,2013-08-17 06:22:00,
2013-08-17 01:26:00,68.5,64.5,30.08,NE,45,0.0,0.0,87,0.00,,,0.00,WUHU21623XXSP,2013-08-17 06:26:00,
2013-08-17 01:32:00,68.5,64.5,30.08,South,180,0.0,0.0,87,0.00,,,0.00,WUHU21623XXSP,2013-08-17 06:32:00,
2013-08-17 01:37:00,68.5,64.5,30.08,NNW,337,7.8,7.8,87,0.00,,,0.00,WUHU21623XXSP,2013-08-17 06:37:00,
2013-08-17 01:41:00,68.5,64.5,30.08,South,180,0.0,7.8,87,0.00,,,0.00,WUHU21623XXSP,2013-08-17 06:41:00,
2013-08-17 01:47:00,68.5,64.5,30.08,SSW,202,0.0,0.0,87,0.00,,,0.00,WUHU21623XXSP,2013-08-17 06:47:00,
2013-08-17 01:51:00,68.5,64.5,30.08,South,180,0.0,0.0,87,0.00,,,0.00,WUHU21623XXSP,2013-08-17 06:51:00,
2013-08-17 01:56:00,68.5,64.5,30.08,South,180,0.0,0.0,87,0.00,,,0.00,WUHU21623XXSP,2013-08-17 06:56:00,
2013-08-17 02:01:00,68.5,64.5,30.08,South,180,0.0,0.0,87,0.00,,,0.00,WUHU21623XXSP,2013-08-17 07:01:00,
2013-08-17 02:06:00,68.5,64.5,30.08,South,180,0.0,0.0,87,0.00,,,0.00,WUHU21623XXSP,2013-08-17 07:06:00,
2013-08-17 02:11:00,68.7,64.7,30.08,SSE,157,0.0,0.0,87,0.00,,,0.00,WUHU21623XXSP,2013-08-17 07:11:00,
2013-08-17 02:16:00,68.5,64.8,30.08,SSE,157,0.0,0.0,88,0.00,,,0.00,WUHU21623XXSP,2013-08-17 07:16:00,
2013-08-17 02:21:00,68.5,64.8,30.07,South,180,0.0,0.0,88,0.00,,,0.00,WUHU21623XXSP,2013-08-17 07:21:00,
2013-08-17 02:26:00,68.5,64.8,30.07,South,180,0.0,0.0,88,0.00,,,0.00,WUHU21623XXSP,2013-08-17 07:26:00,
2013-08-17 02:31:00,68.5,64.8,30.07,South,180,0.0,0.0,88,0.00,,,0.00,WUHU21623XXSP,2013-08-17 07:31:00,
2013-08-17 02:36:00,68.5,64.8,30.07,South,180,0.0,0.0,88,0.00,,,0.00,WUHU21623XXSP,2013-08-17 07:36:00,
2013-08-17 02:41:00,68.4,64.7,30.07,South,180,0.0,0.0,88,0.00,,,0.00,WUHU21623XXSP,2013-08-17 07:41:00,
2013-08-17 02:46:00,68.4,64.7,30.07,South,180,0.0,0.0,88,0.00,,,0.00,WUHU21623XXSP,2013-08-17 07:46:00,
2013-08-17 02:51:00,68.2,64.5,30.07,South,180,0.0,0.0,88,0.00,,,0.00,WUHU21623XXSP,2013-08-17 07:51:00,
2013-08-17 02:56:00,68.2,64.5,30.07,South,180,0.0,0.0,88,0.00,,,0.00,WUHU21623XXSP,2013-08-17 07:56:00,
2013-08-17 03:01:00,68.2,64.5,30.07,South,180,0.0,0.0,88,0.00,,,0.00,WUHU21623XXSP,2013-08-17 08:01:00,
2013-08-17 03:06:00,68.2,64.5,30.07,South,180,0.0,0.0,88,0.00,,,0.00,WUHU21623XXSP,2013-08-17 08:06:00,
2013-08-17 03:11:00,68.0,64.3,30.07,SSW,202,0.0,0.0,88,0.00,,,0.00,WUHU21623XXSP,2013-08-17 08:11:00,
2013-08-17 03:16:00,68.0,64.3,30.07,SSW,202,0.0,0.0,88,0.00,,,0.00,WUHU21623XXSP,2013-08-17 08:16:00,
2013-08-17 03:21:00,68.2,64.5,30.07,SSW,202,0.0,0.0,88,0.00,,,0.00,WUHU21623XXSP,2013-08-17 08:21:00,
2013-08-17 03:26:00,68.2,64.5,30.08,SSW,202,0.0,0.0,88,0.00,,,0.00,WUHU21623XXSP,2013-08-17 08:26:00,
2013-08-17 03:31:00,68.2,64.5,30.08,SSW,202,0.0,0.0,88,0.00,,,0.00,WUHU21623XXSP,2013-08-17 08:31:00,
2013-08-17 03:36:00,68.2,64.5,30.08,SSW,202,0.0,0.0,88,0.00,,,0.00,WUHU21623XXSP,2013-08-17 08:36:00,
2013-08-17 03:41:00,68.2,64.5,30.08,SSW,202,0.0,0.0,88,0.00,,,0.00,WUHU21623XXSP,2013-08-17 08:41:00,
2013-08-17 03:46:00,68.2,64.5,30.07,SSW,202,0.0,0.0,88,0.00,,,0.00,WUHU21623XXSP,2013-08-17 08:46:00,
2013-08-17 03:51:00,68.2,64.5,30.07,SSW,202,0.0,0.0,88,0.00,,,0.00,WUHU21623XXSP,2013-08-17 08:51:00,
2013-08-17 03:56:00,68.2,64.5,30.07,SSW,202,0.0,0.0,88,0.00,,,0.00,WUHU21623XXSP,2013-08-17 08:56:00,
2013-08-17 04:01:00,68.2,64.5,30.07,SSW,202,0.0,0.0,88,0.00,,,0.00,WUHU21623XXSP,2013-08-17 09:01:00,
2013-08-17 04:06:00,68.2,64.5,30.07,SSW,202,0.0,0.0,88,0.00,,,0.00,WUHU21623XXSP,2013-08-17 09:06:00,
2013-08-17 04:11:00,68.4,64.7,30.07,SSW,202,0.0,0.0,88,0.00,,,0.00,WUHU21623XXSP,2013-08-17 09:11:00,
2013-08-17 04:16:00,68.2,64.5,30.07,SSW,202,0.0,0.0,88,0.00,,,0.00,WUHU21623XXSP,2013-08-17 09:16:00,
2013-08-17 04:21:00,68.4,64.7,30.07,SSW,202,0.0,0.0,88,0.00,,,0.00,WUHU21623XXSP,2013-08-17 09:21:00,
2013-08-17 04:26:00,68.4,64.7,30.07,SSW,202,0.0,0.0,88,0.00,,,0.00,WUHU21623XXSP,2013-08-17 09:26:00,
2013-08-17 04:31:00,68.4,64.7,30.07,SE,135,0.0,0.0,88,0.00,,,0.00,WUHU21623XXSP,2013-08-17 09:31:00,
2013-08-17 04:36:00,68.4,64.7,30.07,SE,135,0.0,0.0,88,0.00,,,0.00,WUHU21623XXSP,2013-08-17 09:36:00,
2013-08-17 04:41:00,68.4,64.7,30.07,SE,135,0.0,0.0,88,0.00,,,0.00,WUHU21623XXSP,2013-08-17 09:41:00,
2013-08-17 04:46:00,68.4,64.7,30.07,SE,135,0.0,0.0,88,0.00,,,0.00,WUHU21623XXSP,2013-08-17 09:46:00,
2013-08-17 04:51:00,68.4,64.7,30.07,NE,45,0.0,0.0,88,0.00,,,0.00,WUHU21623XXSP,2013-08-17 09:51:00,
2013-08-17 04:56:00,68.4,64.7,30.08,ENE,67,0.0,0.0,88,0.00,,,0.00,WUHU21623XXSP,2013-08-17 09:56:00,
2013-08-17 05:01:00,68.5,64.8,30.08,North,0,0.0,0.0,88,0.00,,,0.00,WUHU21623XXSP,2013-08-17 10:01:00,
2013-08-17 05:06:00,68.4,64.7,30.07,North,0,0.0,0.0,88,0.00,,,0.00,WUHU21623XXSP,2013-08-17 10:06:00,
2013-08-17 05:11:00,68.4,64.7,30.07,North,0,0.0,0.0,88,0.00,,,0.00,WUHU21623XXSP,2013-08-17 10:11:00,
2013-08-17 05:16:00,68.5,64.8,30.07,North,0,0.0,0.0,88,0.00,,,0.00,WUHU21623XXSP,2013-08-17 10:16:00,
2013-08-17 05:21:00,68.4,64.7,30.07,North,0,0.0,0.0,88,0.00,,,0.00,WUHU21623XXSP,2013-08-17 10:21:00,
2013-08-17 05:26:00,68.4,64.7,30.08,North,0,0.0,0.0,88,0.00,,,0.00,WUHU21623XXSP,2013-08-17 10:26:00,
2013-08-17 05:31:00,68.4,64.7,30.08,North,0,0.0,0.0,88,0.00,,,0.00,WUHU21623XXSP,2013-08-17 10:31:00,
2013-08-17 05:36:00,68.4,64.7,30.08,North,0,0.0,0.0,88,0.00,,,0.00,WUHU21623XXSP,2013-08-17 10:36:00,
2013-08-17 05:41:00,68.4,64.7,30.08,North,0,0.0,0.0,88,0.00,,,0.00,WUHU21623XXSP,2013-08-17 10:41:00,
2013-08-17 05:46:00,68.4,64.7,30.08,North,0,0.0,0.0,88,0.00,,,0.00,WUHU21623XXSP,2013-08-17 10:46:00,
2013-08-17 05:51:00,68.4,64.7,30.08,North,0,0.0,0.0,88,0.00,,,0.00,WUHU21623XXSP,2013-08-17 10:51:00,
2013-08-17 05:56:00,68.4,64.7,30.08,North,0,0.0,0.0,88,0.00,,,0.00,WUHU21623XXSP,2013-08-17 10:56:00,
2013-08-17 06:01:00,68.4,64.7,30.08,North,0,0.0,0.0,88,0.00,,,0.00,WUHU21623XXSP,2013-08-17 11:01:00,
2013-08-17 06:06:00,68.4,64.7,30.08,North,0,0.0,0.0,88,0.00,,,0.00,WUHU21623XXSP,2013-08-17 11:06:00,
2013-08-17 06:11:00,68.4,64.7,30.08,North,0,0.0,0.0,88,0.00,,,0.00,WUHU21623XXSP,2013-08-17 11:11:00,
2013-08-17 06:16:00,68.4,64.7,30.08,North,0,0.0,0.0,88,0.00,,,0.00,WUHU21623XXSP,2013-08-17 11:16:00,
2013-08-17 06:21:00,68.4,64.7,30.08,North,0,0.0,0.0,88,0.00,,,0.00,WUHU21623XXSP,2013-08-17 11:21:00,
2013-08-17 06:26:00,68.4,64.7,30.08,North,0,0.0,0.0,88,0.00,,,0.00,WUHU21623XXSP,2013-08-17 11:26:00,
2013-08-17 06:31:00,68.4,64.7,30.08,North,0,0.0,0.0,88,0.00,,,0.00,WUHU21623XXSP,2013-08-17 11:31:00,
2013-08-17 06:36:00,68.4,64.7,30.08,North,0,0.0,0.0,88,0.00,,,0.00,WUHU21623XXSP,2013-08-17 11:36:00,
2013-08-17 06:41:00,68.4,64.7,30.08,North,0,0.0,0.0,88,0.00,,,0.00,WUHU21623XXSP,2013-08-17 11:41:00,
2013-08-17 06:46:00,68.4,64.7,30.08,WNW,292,0.0,0.0,88,0.00,,,0.00,WUHU21623XXSP,2013-08-17 11:46:00,
2013-08-17 06:51:00,68.4,64.7,30.09,WNW,292,0.0,0.0,88,0.00,,,0.00,WUHU21623XXSP,2013-08-17 11:51:00,
2013-08-17 06:56:00,68.5,64.8,30.09,WNW,292,0.0,0.0,88,0.00,,,0.00,WUHU21623XXSP,2013-08-17 11:56:00,
2013-08-17 07:01:00,68.5,64.8,30.09,WNW,292,0.0,0.0,88,0.00,,,0.00,WUHU21623XXSP,2013-08-17 12:01:00,
2013-08-17 07:06:00,68.5,64.8,30.09,NW,315,0.0,0.0,88,0.00,,,0.00,WUHU21623XXSP,2013-08-17 12:06:00,
2013-08-17 07:11:00,68.7,65.0,30.09,NW,315,0.0,0.0,88,0.00,,,0.00,WUHU21623XXSP,2013-08-17 12:11:00,
2013-08-17 07:16:00,68.7,65.0,30.09,NW,315,0.0,0.0,88,0.00,,,0.00,WUHU21623XXSP,2013-08-17 12:16:00,
2013-08-17 07:21:00,68.9,65.5,30.09,WNW,292,0.0,0.0,89,0.00,,,0.00,WUHU21623XXSP,2013-08-17 12:21:00,
2013-08-17 07:26:00,69.1,65.4,30.09,NW,315,0.0,0.0,88,0.00,,,0.00,WUHU21623XXSP,2013-08-17 12:26:00,
2013-08-17 07:31:00,69.1,65.4,30.09,NW,315,0.0,0.0,88,0.00,,,0.00,WUHU21623XXSP,2013-08-17 12:31:00,
2013-08-17 07:36:00,69.4,66.0,30.09,ENE,67,0.0,0.0,89,0.00,,,0.00,WUHU21623XXSP,2013-08-17 12:36:00,
2013-08-17 07:41:00,69.4,66.0,30.10,ENE,67,0.0,0.0,89,0.00,,,0.00,WUHU21623XXSP,2013-08-17 12:41:00,
2013-08-17 07:46:00,69.4,66.0,30.10,ENE,67,0.0,0.0,89,0.00,,,0.00,WUHU21623XXSP,2013-08-17 12:46:00,
2013-08-17 07:51:00,69.6,66.2,30.10,SE,135,0.0,0.0,89,0.00,,,0.00,WUHU21623XXSP,2013-08-17 12:51:00,
2013-08-17 07:56:00,69.6,66.2,30.10,SE,135,0.0,0.0,89,0.00,,,0.00,WUHU21623XXSP,2013-08-17 12:56:00,
2013-08-17 08:01:00,70.0,66.6,30.09,ESE,112,0.0,0.0,89,0.00,,,0.00,WUHU21623XXSP,2013-08-17 13:01:00,
2013-08-17 08:06:00,70.3,66.9,30.10,ESE,112,0.0,0.0,89,0.00,,,0.00,WUHU21623XXSP,2013-08-17 13:06:00,
2013-08-17 08:11:00,70.5,67.1,30.09,ESE,112,0.0,0.0,89,0.00,,,0.00,WUHU21623XXSP,2013-08-17 13:11:00,
2013-08-17 08:16:00,70.9,67.5,30.09,NNE,22,0.0,0.0,89,0.00,,,0.00,WUHU21623XXSP,2013-08-17 13:16:00,
2013-08-17 08:21:00,71.2,67.8,30.10,NE,45,0.0,1.1,89,0.00,,,0.00,WUHU21623XXSP,2013-08-17 13:21:00,
2013-08-17 08:26:00,71.2,67.5,30.10,NE,45,0.0,1.6,88,0.00,,,0.00,WUHU21623XXSP,2013-08-17 13:26:00,
2013-08-17 08:31:00,71.2,67.5,30.10,NE,45,0.8,1.6,88,0.00,,,0.00,WUHU21623XXSP,2013-08-17 13:31:00,
2013-08-17 08:36:00,71.2,67.5,30.10,NE,45,0.0,1.3,88,0.00,,,0.00,WUHU21623XXSP,2013-08-17 13:36:00,
2013-08-17 08:41:00,71.6,67.9,30.10,East,90,0.9,0.9,88,0.00,,,0.00,WUHU21623XXSP,2013-08-17 13:41:00,
2013-08-17 08:46:00,71.8,68.1,30.10,NE,45,3.6,6.0,88,0.00,,,0.00,WUHU21623XXSP,2013-08-17 13:46:00,
2013-08-17 08:51:00,71.8,68.1,30.10,East,83,0.8,6.0,88,0.00,,,0.00,WUHU21623XXSP,2013-08-17 13:51:00,
2013-08-17 08:56:00,72.0,68.3,30.10,East,85,1.4,3.4,88,0.00,,,0.00,WUHU21623XXSP,2013-08-17 13:56:00,
2013-08-17 09:01:00,72.1,68.4,30.10,ENE,77,0.8,2.5,88,0.00,,,0.00,WUHU21623XXSP,2013-08-17 14:01:00,
2013-08-17 09:06:00,72.1,68.0,30.10,NE,45,3.0,4.3,87,0.00,,,0.00,WUHU21623XXSP,2013-08-17 14:06:00,
2013-08-17 09:11:00,72.3,68.2,30.10,ENE,62,1.8,4.3,87,0.00,,,0.00,WUHU21623XXSP,2013-08-17 14:11:00,
2013-08-17 09:16:00,72.3,68.2,30.10,NE,45,1.3,2.7,87,0.00,,,0.00,WUHU21623XXSP,2013-08-17 14:16:00,
2013-08-17 09:21:00,72.3,68.2,30.10,NE,45,0.0,1.3,87,0.00,,,0.00,WUHU21623XXSP,2013-08-17 14:21:00,
2013-08-17 09:26:00,72.5,68.1,30.10,NE,45,0.0,2.0,86,0.00,,,0.00,WUHU21623XXSP,2013-08-17 14:26:00,
2013-08-17 09:31:00,72.7,68.3,30.11,NNE,23,2.3,3.8,86,0.00,,,0.00,WUHU21623XXSP,2013-08-17 14:31:00,
2013-08-17 09:36:00,72.7,68.0,30.11,NE,45,4.5,5.1,85,0.00,,,0.00,WUHU21623XXSP,2013-08-17 14:36:00,
2013-08-17 09:41:00,72.7,68.0,30.11,NNE,22,4.5,5.4,85,0.00,,,0.00,WUHU21623XXSP,2013-08-17 14:41:00,
2013-08-17 09:46:00,72.5,67.8,30.11,NE,45,4.3,7.4,85,0.00,,,0.00,WUHU21623XXSP,2013-08-17 14:46:00,
2013-08-17 09:51:00,72.3,67.6,30.11,NE,45,7.4,10.3,85,0.00,,,0.00,WUHU21623XXSP,2013-08-17 14:51:00,
2013-08-17 09:56:00,72.1,67.4,30.12,NNE,22,6.9,10.3,85,0.00,,,0.00,WUHU21623XXSP,2013-08-17 14:56:00,
2013-08-17 10:01:00,72.1,67.4,30.12,NNE,21,6.0,9.4,85,0.00,,,0.00,WUHU21623XXSP,2013-08-17 15:01:00,
2013-08-17 10:06:00,72.1,67.4,30.12,NNE,22,8.9,11.0,85,0.00,,,0.00,WUHU21623XXSP,2013-08-17 15:06:00,
2013-08-17 10:11:00,72.0,67.3,30.12,NE,45,9.4,13.2,85,0.00,,,0.00,WUHU21623XXSP,2013-08-17 15:11:00,
2013-08-17 10:16:00,71.4,66.7,30.12,NE,37,8.1,14.5,85,0.00,,,0.00,WUHU21623XXSP,2013-08-17 15:16:00,
2013-08-17 10:21:00,71.2,66.5,30.12,NE,35,4.4,14.5,85,0.00,,,0.00,WUHU21623XXSP,2013-08-17 15:21:00,
2013-08-17 10:26:00,71.2,66.8,30.12,NE,38,4.2,8.9,86,0.00,,,0.00,WUHU21623XXSP,2013-08-17 15:26:00,
2013-08-17 10:31:00,70.9,66.5,30.12,NE,34,3.0,8.1,86,0.00,,,0.00,WUHU21623XXSP,2013-08-17 15:31:00,
2013-08-17 10:36:00,70.9,66.5,30.12,NE,45,4.7,8.1,86,0.00,,,0.00,WUHU21623XXSP,2013-08-17 15:36:00,
2013-08-17 10:41:00,70.9,66.5,30.12,NNE,27,6.7,9.8,86,0.00,,,0.00,WUHU21623XXSP,2013-08-17 15:41:00,
2013-08-17 10:46:00,71.2,66.5,30.12,NE,50,5.6,9.8,85,0.00,,,0.00,WUHU21623XXSP,2013-08-17 15:46:00,
2013-08-17 10:51:00,71.1,66.4,30.13,East,89,1.5,6.7,85,0.00,,,0.00,WUHU21623XXSP,2013-08-17 15:51:00,
2013-08-17 10:56:00,70.9,66.2,30.13,NE,54,3.5,8.1,85,0.00,,,0.00,WUHU21623XXSP,2013-08-17 15:56:00,
2013-08-17 11:01:00,70.9,66.2,30.12,SE,135,0.0,8.1,85,0.00,,,0.00,WUHU21623XXSP,2013-08-17 16:01:00,
2013-08-17 11:06:00,70.5,65.8,30.13,SE,125,1.5,4.7,85,0.02,,,0.02,WUHU21623XXSP,2013-08-17 16:06:00,
2013-08-17 11:11:00,70.3,65.6,30.12,East,98,3.0,5.1,85,0.02,,,0.02,WUHU21623XXSP,2013-08-17 16:11:00,
2013-08-17 11:16:00,70.0,65.3,30.12,SE,135,0.9,5.1,85,0.02,,,0.02,WUHU21623XXSP,2013-08-17 16:16:00,
2013-08-17 11:21:00,69.8,65.1,30.12,SE,126,3.4,4.7,85,0.02,,,0.02,WUHU21623XXSP,2013-08-17 16:21:00,
2013-08-17 11:26:00,69.4,64.7,30.11,ESE,112,0.0,4.5,85,0.04,,,0.04,WUHU21623XXSP,2013-08-17 16:26:00,
2013-08-17 11:31:00,69.1,64.4,30.12,NE,45,0.0,1.1,85,0.04,,,0.04,WUHU21623XXSP,2013-08-17 16:31:00,
2013-08-17 11:36:00,68.9,64.2,30.11,SE,135,0.0,0.7,85,0.06,,,0.06,WUHU21623XXSP,2013-08-17 16:36:00,
2013-08-17 11:41:00,68.9,64.2,30.11,ESE,112,0.0,0.9,85,0.06,,,0.06,WUHU21623XXSP,2013-08-17 16:41:00,
2013-08-17 11:46:00,68.9,64.2,30.11,ENE,67,0.0,0.9,85,0.06,,,0.06,WUHU21623XXSP,2013-08-17 16:46:00,
2013-08-17 11:51:00,69.1,64.4,30.11,NNE,22,2.5,2.5,85,0.06,,,0.06,WUHU21623XXSP,2013-08-17 16:51:00,
2013-08-17 11:56:00,69.4,64.7,30.11,NE,45,3.8,3.8,85,0.06,,,0.06,WUHU21623XXSP,2013-08-17 16:56:00,
2013-08-17 12:01:00,69.6,64.9,30.11,NE,45,4.5,7.2,85,0.06,,,0.06,WUHU21623XXSP,2013-08-17 17:01:00,
2013-08-17 12:06:00,69.6,65.2,30.11,NNE,22,4.7,7.2,86,0.04,,,0.06,WUHU21623XXSP,2013-08-17 17:06:00,
2013-08-17 12:11:00,70.0,65.6,30.11,North,0,4.9,6.7,86,0.04,,,0.06,WUHU21623XXSP,2013-08-17 17:11:00,
2013-08-17 12:16:00,70.5,66.1,30.10,NNE,21,3.9,6.9,86,0.04,,,0.06,WUHU21623XXSP,2013-08-17 17:16:00,
2013-08-17 12:21:00,70.7,66.3,30.10,NNE,22,5.1,6.9,86,0.04,,,0.06,WUHU21623XXSP,2013-08-17 17:21:00,
2013-08-17 12:26:00,71.2,66.8,30.10,NNE,22,4.0,7.2,86,0.02,,,0.06,WUHU21623XXSP,2013-08-17 17:26:00,
2013-08-17 12:31:00,71.4,67.0,30.10,North,0,4.9,7.6,86,0.02,,,0.06,WUHU21623XXSP,2013-08-17 17:31:00,
2013-08-17 12:35:00,71.8,67.1,30.10,North,1,5.0,7.6,85,0.00,,,0.06,WUHU21623XXSP,2013-08-17 17:35:00,
2013-08-17 12:40:00,71.8,67.1,30.10,North,0,6.9,7.8,85,0.00,,,0.06,WUHU21623XXSP,2013-08-17 17:40:00,
2013-08-17 12:45:00,72.1,67.4,30.09,NNW,337,3.2,7.8,85,0.00,,,0.06,WUHU21623XXSP,2013-08-17 17:45:00,
2013-08-17 12:50:00,72.7,68.0,30.09,NE,46,1.6,6.9,85,0.00,,,0.06,WUHU21623XXSP,2013-08-17 17:50:00,
2013-08-17 12:55:00,73.0,68.3,30.09,NNE,22,7.6,7.6,85,0.00,,,0.06,WUHU21623XXSP,2013-08-17 17:55:00,
2013-08-17 13:00:00,73.6,68.8,30.09,East,86,2.1,7.8,85,0.00,,,0.06,WUHU21623XXSP,2013-08-17 18:00:00,
2013-08-17 13:05:00,74.3,69.5,30.09,ENE,73,1.2,7.8,85,0.00,,,0.06,WUHU21623XXSP,2013-08-17 18:05:00,
2013-08-17 13:10:00,75.4,70.6,30.09,East,84,4.0,6.0,85,0.00,,,0.06,WUHU21623XXSP,2013-08-17 18:10:00,
2013-08-17 13:15:00,75.9,70.4,30.09,ESE,112,4.7,5.4,83,0.00,,,0.06,WUHU21623XXSP,2013-08-17 18:15:00,
2013-08-17 13:20:00,75.9,69.7,30.08,East,86,2.0,9.2,81,0.00,,,0.06,WUHU21623XXSP,2013-08-17 18:20:00,
2013-08-17 13:25:00,75.9,69.7,30.08,NE,45,4.0,9.2,81,0.00,,,0.06,WUHU21623XXSP,2013-08-17 18:25:00,
2013-08-17 13:30:00,75.9,69.4,30.08,East,82,4.9,6.9,80,0.00,,,0.06,WUHU21623XXSP,2013-08-17 18:30:00,
2013-08-17 13:35:00,76.3,69.8,30.08,ESE,112,3.8,6.9,80,0.00,,,0.06,WUHU21623XXSP,2013-08-17 18:35:00,
2013-08-17 13:40:00,76.6,69.7,30.08,ENE,78,1.9,6.7,79,0.00,,,0.06,WUHU21623XXSP,2013-08-17 18:40:00,
2013-08-17 13:45:00,76.6,69.4,30.08,East,90,4.5,6.7,78,0.00,,,0.06,WUHU21623XXSP,2013-08-17 18:45:00,
2013-08-17 13:50:00,76.8,69.5,30.07,ENE,77,4.7,8.5,78,0.00,,,0.06,WUHU21623XXSP,2013-08-17 18:50:00,
2013-08-17 13:55:00,76.8,69.5,30.07,NE,45,6.3,8.5,78,0.00,,,0.06,WUHU21623XXSP,2013-08-17 18:55:00,
2013-08-17 14:00:00,77.2,69.6,30.07,ENE,77,2.4,8.1,77,0.00,,,0.06,WUHU21623XXSP,2013-08-17 19:00:00,
2013-08-17 14:05:00,77.7,69.7,30.06,ENE,67,5.4,8.1,76,0.00,,,0.06,WUHU21623XXSP,2013-08-17 19:05:00,
2013-08-17 14:10:00,78.1,70.1,30.07,East,87,3.5,11.6,76,0.00,,,0.06,WUHU21623XXSP,2013-08-17 19:10:00,
2013-08-17 14:15:00,78.4,70.0,30.06,SSE,152,4.1,11.6,75,0.00,,,0.06,WUHU21623XXSP,2013-08-17 19:15:00,
2013-08-17 14:20:00,78.8,70.0,30.06,East,84,3.1,6.9,74,0.00,,,0.06,WUHU21623XXSP,2013-08-17 19:20:00,
2013-08-17 14:25:00,79.0,70.2,30.06,East,101,1.5,6.9,74,0.00,,,0.06,WUHU21623XXSP,2013-08-17 19:25:00,
2013-08-17 14:30:00,79.3,70.5,30.06,ENE,58,6.1,10.7,74,0.00,,,0.06,WUHU21623XXSP,2013-08-17 19:30:00,
2013-08-17 14:35:00,79.0,69.8,30.06,SSE,157,0.0,10.7,73,0.00,,,0.06,WUHU21623XXSP,2013-08-17 19:35:00,
2013-08-17 14:40:00,79.3,70.5,30.06,ENE,67,4.3,5.4,74,0.00,,,0.06,WUHU21623XXSP,2013-08-17 19:40:00,
2013-08-17 14:45:00,79.5,70.3,30.06,NE,45,6.5,8.3,73,0.00,,,0.06,WUHU21623XXSP,2013-08-17 19:45:00,
2013-08-17 14:50:00,79.2,69.6,30.06,East,97,3.6,8.3,72,0.00,,,0.06,WUHU21623XXSP,2013-08-17 19:50:00,
2013-08-17 14:55:00,79.2,70.0,30.06,ESE,119,2.0,7.6,73,0.00,,,0.06,WUHU21623XXSP,2013-08-17 19:55:00,
2013-08-17 15:00:00,79.7,70.5,30.06,SE,127,2.8,5.4,73,0.00,,,0.06,WUHU21623XXSP,2013-08-17 20:00:00,
2013-08-17 15:05:00,80.1,70.1,30.06,East,85,1.9,4.5,71,0.00,,,0.06,WUHU21623XXSP,2013-08-17 20:05:00,
2013-08-17 15:10:00,79.9,69.9,30.06,ENE,67,3.8,6.7,71,0.00,,,0.06,WUHU21623XXSP,2013-08-17 20:10:00,
2013-08-17 15:15:00,80.1,70.1,30.05,East,98,2.2,6.7,71,0.00,,,0.06,WUHU21623XXSP,2013-08-17 20:15:00,
2013-08-17 15:20:00,80.4,70.8,30.05,SSE,155,2.0,6.0,72,0.00,,,0.06,WUHU21623XXSP,2013-08-17 20:20:00,
2013-08-17 15:25:00,81.0,70.5,30.05,NE,54,1.8,4.9,70,0.00,,,0.06,WUHU21623XXSP,2013-08-17 20:25:00,
2013-08-17 15:30:00,81.1,70.6,30.05,ESE,111,5.1,6.5,70,0.00,,,0.06,WUHU21623XXSP,2013-08-17 20:30:00,
2013-08-17 15:35:00,80.4,69.9,30.05,East,90,2.5,6.5,70,0.00,,,0.06,WUHU21623XXSP,2013-08-17 20:35:00,
2013-08-17 15:40:00,79.5,69.1,30.05,NE,47,3.3,5.1,70,0.00,,,0.06,WUHU21623XXSP,2013-08-17 20:40:00,
2013-08-17 15:45:00,78.6,69.0,30.05,East,83,1.5,4.9,72,0.00,,,0.06,WUHU21623XXSP,2013-08-17 20:45:00,
2013-08-17 15:50:00,78.4,68.8,30.05,ENE,67,0.0,3.6,72,0.00,,,0.06,WUHU21623XXSP,2013-08-17 20:50:00,
2013-08-17 15:55:00,78.1,68.9,30.05,ESE,120,1.4,2.2,73,0.00,,,0.06,WUHU21623XXSP,2013-08-17 20:55:00,
2013-08-17 16:00:00,77.9,68.7,30.04,ENE,67,0.0,6.0,73,0.00,,,0.06,WUHU21623XXSP,2013-08-17 21:00:00,
2013-08-17 16:05:00,78.1,68.9,30.04,ENE,63,1.0,6.0,73,0.00,,,0.06,WUHU21623XXSP,2013-08-17 21:05:00,
2013-08-17 16:10:00,78.4,69.2,30.04,SE,130,2.2,5.1,73,0.00,,,0.06,WUHU21623XXSP,2013-08-17 21:10:00,
2013-08-17 16:15:00,78.6,69.4,30.04,ESE,112,2.0,4.3,73,0.00,,,0.06,WUHU21623XXSP,2013-08-17 21:15:00,
2013-08-17 16:20:00,79.0,69.4,30.05,ESE,112,1.8,8.5,72,0.00,,,0.06,WUHU21623XXSP,2013-08-17 21:20:00,
2013-08-17 16:25:00,78.6,69.0,30.04,SE,135,2.0,8.5,72,0.00,,,0.06,WUHU21623XXSP,2013-08-17 21:25:00,
2013-08-17 16:30:00,78.6,69.0,30.04,ESE,103,1.0,3.8,72,0.00,,,0.06,WUHU21623XXSP,2013-08-17 21:30:00,
2013-08-17 16:35:00,78.6,69.0,30.04,SE,126,2.5,5.1,72,0.00,,,0.06,WUHU21623XXSP,2013-08-17 21:35:00,
2013-08-17 16:40:00,78.4,68.8,30.05,SE,135,0.0,5.8,72,0.00,,,0.06,WUHU21623XXSP,2013-08-17 21:40:00,
2013-08-17 16:45:00,78.1,68.5,30.05,SSE,157,0.0,5.8,72,0.00,,,0.06,WUHU21623XXSP,2013-08-17 21:45:00,
2013-08-17 16:50:00,78.1,68.5,30.05,SE,135,0.0,0.7,72,0.00,,,0.06,WUHU21623XXSP,2013-08-17 21:50:00,
2013-08-17 16:55:00,78.1,68.5,30.05,NE,45,0.0,0.0,72,0.00,,,0.06,WUHU21623XXSP,2013-08-17 21:55:00,
2013-08-17 17:00:00,78.4,68.8,30.05,NE,47,1.3,3.1,72,0.00,,,0.06,WUHU21623XXSP,2013-08-17 22:00:00,
2013-08-17 17:05:00,78.6,68.6,30.05,NE,51,5.4,10.7,71,0.00,,,0.06,WUHU21623XXSP,2013-08-17 22:05:00,
2013-08-17 17:10:00,78.4,68.4,30.05,ESE,112,0.0,10.7,71,0.00,,,0.06,WUHU21623XXSP,2013-08-17 22:10:00,
2013-08-17 17:15:00,77.9,67.9,30.05,ESE,112,0.0,6.0,71,0.00,,,0.06,WUHU21623XXSP,2013-08-17 22:15:00,
2013-08-17 17:20:00,77.5,68.0,30.05,ENE,67,0.4,1.1,72,0.00,,,0.06,WUHU21623XXSP,2013-08-17 22:20:00,
2013-08-17 17:25:00,77.2,68.1,30.05,ENE,67,0.0,2.0,73,0.00,,,0.06,WUHU21623XXSP,2013-08-17 22:25:00,
2013-08-17 17:30:00,76.8,68.1,30.05,NE,50,0.4,2.0,74,0.00,,,0.06,WUHU21623XXSP,2013-08-17 22:30:00,
2013-08-17 17:35:00,76.6,67.9,30.05,NE,55,2.0,2.5,74,0.00,,,0.06,WUHU21623XXSP,2013-08-17 22:35:00,
2013-08-17 17:40:00,76.3,67.6,30.05,NE,45,0.0,4.0,74,0.00,,,0.06,WUHU21623XXSP,2013-08-17 22:40:00,
2013-08-17 17:45:00,76.3,68.0,30.05,NE,45,1.1,4.0,75,0.00,,,0.06,WUHU21623XXSP,2013-08-17 22:45:00,
2013-08-17 17:50:00,76.1,67.8,30.05,NE,45,3.8,3.8,75,0.00,,,0.06,WUHU21623XXSP,2013-08-17 22:50:00,
2013-08-17 17:55:00,76.1,68.1,30.05,NNE,22,0.7,3.8,76,0.00,,,0.06,WUHU21623XXSP,2013-08-17 22:55:00,
2013-08-17 18:00:00,75.9,67.9,30.05,North,0,1.1,1.6,76,0.00,,,0.06,WUHU21623XXSP,2013-08-17 23:00:00,
2013-08-17 18:05:00,75.7,68.1,30.04,NNE,22,0.0,3.1,77,0.00,,,0.06,WUHU21623XXSP,2013-08-17 23:05:00,
2013-08-17 18:10:00,75.7,68.1,30.04,North,4,6.3,7.6,77,0.02,,,0.08,WUHU21623XXSP,2013-08-17 23:10:00,
2013-08-17 18:15:00,75.4,68.2,30.05,NNE,22,2.0,8.1,78,0.02,,,0.08,WUHU21623XXSP,2013-08-17 23:15:00,
2013-08-17 18:20:00,75.0,68.2,30.05,NE,45,0.0,8.1,79,0.02,,,0.08,WUHU21623XXSP,2013-08-17 23:20:00,
2013-08-17 18:25:00,74.7,67.9,30.05,North,0,2.5,2.7,79,0.02,,,0.08,WUHU21623XXSP,2013-08-17 23:25:00,
2013-08-17 18:30:00,74.3,67.8,30.05,North,0,5.1,6.5,80,0.02,,,0.08,WUHU21623XXSP,2013-08-17 23:30:00,
2013-08-17 18:35:00,73.9,67.8,30.05,North,0,3.4,6.5,81,0.02,,,0.08,WUHU21623XXSP,2013-08-17 23:35:00,
2013-08-17 18:40:00,73.6,67.5,30.05,North,0,4.0,6.3,81,0.02,,,0.08,WUHU21623XXSP,2013-08-17 23:40:00,
2013-08-17 18:45:00,73.4,67.6,30.05,North,0,2.3,6.3,82,0.02,,,0.08,WUHU21623XXSP,2013-08-17 23:45:00,
2013-08-17 18:50:00,73.2,67.4,30.05,North,0,0.0,4.9,82,0.02,,,0.08,WUHU21623XXSP,2013-08-17 23:50:00,
2013-08-17 18:55:00,73.0,67.6,30.05,NNE,22,1.1,2.5,83,0.02,,,0.08,WUHU21623XXSP,2013-08-17 23:55:00,
2013-08-17 19:00:00,72.9,67.5,30.05,NNE,22,1.0,2.5,83,0.02,,,0.08,WUHU21623XXSP,2013-08-18 00:00:00,
2013-08-17 19:05:00,72.7,67.3,30.05,North,0,0.0,1.8,83,0.02,,,0.08,WUHU21623XXSP,2013-08-18 00:05:00,
2013-08-17 19:10:00,72.7,67.3,30.05,North,0,1.8,2.2,83,0.00,,,0.08,WUHU21623XXSP,2013-08-18 00:10:00,
2013-08-17 19:15:00,72.5,67.4,30.05,North,0,1.1,2.2,84,0.00,,,0.08,WUHU21623XXSP,2013-08-18 00:15:00,
2013-08-17 19:20:00,72.3,67.2,30.05,NNE,22,0.0,2.9,84,0.00,,,0.08,WUHU21623XXSP,2013-08-18 00:20:00,
2013-08-17 19:25:00,72.3,67.2,30.05,North,0,0.0,2.9,84,0.00,,,0.08,WUHU21623XXSP,2013-08-18 00:25:00,
2013-08-17 19:30:00,72.3,67.6,30.05,NNW,337,0.0,0.9,85,0.00,,,0.08,WUHU21623XXSP,2013-08-18 00:30:00,
2013-08-17 19:35:00,72.3,67.6,30.05,North,0,0.2,0.9,85,0.00,,,0.08,WUHU21623XXSP,2013-08-18 00:35:00,
2013-08-17 19:40:00,72.3,67.6,30.05,North,6,1.2,2.2,85,0.00,,,0.08,WUHU21623XXSP,2013-08-18 00:40:00,
2013-08-17 19:45:00,72.3,67.6,30.05,NNE,22,1.3,3.4,85,0.00,,,0.08,WUHU21623XXSP,2013-08-18 00:45:00,
2013-08-17 19:50:00,72.3,67.6,30.05,North,7,1.9,3.4,85,0.00,,,0.08,WUHU21623XXSP,2013-08-18 00:50:00,
2013-08-17 19:55:00,72.3,67.6,30.06,NNE,22,1.8,3.8,85,0.00,,,0.08,WUHU21623XXSP,2013-08-18 00:55:00,
2013-08-17 20:00:00,72.1,67.4,30.06,NNE,23,2.9,6.9,85,0.00,,,0.08,WUHU21623XXSP,2013-08-18 01:00:00,
2013-08-17 20:05:00,72.1,67.4,30.06,NE,45,1.8,6.9,85,0.00,,,0.08,WUHU21623XXSP,2013-08-18 01:05:00,
2013-08-17 20:10:00,72.3,67.6,30.06,NNE,23,3.0,5.6,85,0.00,,,0.08,WUHU21623XXSP,2013-08-18 01:10:00,
2013-08-17 20:15:00,72.3,67.6,30.06,NE,40,1.6,7.8,85,0.00,,,0.08,WUHU21623XXSP,2013-08-18 01:15:00,
2013-08-17 20:20:00,72.3,67.6,30.06,NE,46,2.1,7.8,85,0.00,,,0.08,WUHU21623XXSP,2013-08-18 01:20:00,
2013-08-17 20:25:00,72.3,67.6,30.06,NE,47,2.5,4.7,85,0.00,,,0.08,WUHU21623XXSP,2013-08-18 01:25:00,
2013-08-17 20:30:00,72.3,67.6,30.06,ENE,67,0.0,4.3,85,0.00,,,0.08,WUHU21623XXSP,2013-08-18 01:30:00,
2013-08-17 20:35:00,72.3,67.6,30.07,ENE,67,0.0,1.1,85,0.00,,,0.08,WUHU21623XXSP,2013-08-18 01:35:00,
2013-08-17 20:40:00,72.3,67.6,30.06,NE,45,0.9,0.9,85,0.00,,,0.08,WUHU21623XXSP,2013-08-18 01:40:00,
2013-08-17 20:45:00,72.1,67.4,30.06,NE,45,0.0,4.0,85,0.00,,,0.08,WUHU21623XXSP,2013-08-18 01:45:00,
2013-08-17 20:50:00,72.1,67.4,30.07,NNE,29,2.3,6.0,85,0.00,,,0.08,WUHU21623XXSP,2013-08-18 01:50:00,
2013-08-17 20:55:00,72.0,67.3,30.07,NE,45,2.7,6.0,85,0.00,,,0.08,WUHU21623XXSP,2013-08-18 01:55:00,
2013-08-17 21:00:00,72.0,67.3,30.07,ENE,67,0.0,5.1,85,0.00,,,0.08,WUHU21623XXSP,2013-08-18 02:00:00,
2013-08-17 21:05:00,72.0,67.3,30.07,ENE,67,0.0,1.1,85,0.00,,,0.08,WUHU21623XXSP,2013-08-18 02:05:00,
2013-08-17 21:10:00,72.0,67.3,30.07,NNE,22,0.0,0.0,85,0.00,,,0.08,WUHU21623XXSP,2013-08-18 02:10:00,
2013-08-17 21:15:00,71.8,67.1,30.08,NNE,26,1.3,2.2,85,0.00,,,0.08,WUHU21623XXSP,2013-08-18 02:15:00,
2013-08-17 21:20:00,71.8,67.4,30.07,NNE,30,1.6,3.6,86,0.00,,,0.08,WUHU21623XXSP,2013-08-18 02:20:00,
2013-08-17 21:25:00,71.8,67.4,30.08,NE,52,4.8,7.4,86,0.00,,,0.08,WUHU21623XXSP,2013-08-18 02:25:00,
2013-08-17 21:30:00,71.6,67.2,30.08,ENE,67,0.0,7.4,86,0.00,,,0.08,WUHU21623XXSP,2013-08-18 02:30:00,
2013-08-17 21:35:00,71.4,66.7,30.08,NE,45,0.0,4.9,85,0.00,,,0.08,WUHU21623XXSP,2013-08-18 02:35:00,
2013-08-17 21:40:00,71.4,66.7,30.08,NE,45,0.0,0.0,85,0.00,,,0.08,WUHU21623XXSP,2013-08-18 02:40:00,
2013-08-17 21:45:00,71.2,66.5,30.08,NE,45,0.0,0.0,85,0.00,,,0.08,WUHU21623XXSP,2013-08-18 02:45:00,
2013-08-17 21:50:00,71.2,66.5,30.08,NE,45,0.0,0.0,85,0.00,,,0.08,WUHU21623XXSP,2013-08-18 02:50:00,
2013-08-17 21:55:00,71.1,66.4,30.08,NE,45,0.0,0.0,85,0.00,,,0.08,WUHU21623XXSP,2013-08-18 02:55:00,
2013-08-17 22:00:00,70.9,66.2,30.08,NE,45,0.0,0.0,85,0.00,,,0.08,WUHU21623XXSP,2013-08-18 03:00:00,
2013-08-17 22:05:00,70.9,66.2,30.08,NE,45,0.0,0.0,85,0.00,,,0.08,WUHU21623XXSP,2013-08-18 03:05:00,
2013-08-17 22:10:00,70.7,66.0,30.08,NNE,22,0.0,0.0,85,0.00,,,0.08,WUHU21623XXSP,2013-08-18 03:10:00,
2013-08-17 22:15:00,70.5,65.8,30.08,NNE,14,5.1,6.9,85,0.00,,,0.08,WUHU21623XXSP,2013-08-18 03:15:00,
2013-08-17 22:20:00,70.2,65.5,30.08,NNE,22,1.1,6.9,85,0.00,,,0.08,WUHU21623XXSP,2013-08-18 03:20:00,
2013-08-17 22:25:00,70.0,65.3,30.08,NNE,26,3.0,6.5,85,0.00,,,0.08,WUHU21623XXSP,2013-08-18 03:25:00,
2013-08-17 22:30:00,70.0,65.6,30.08,NNE,22,4.1,6.7,86,0.00,,,0.08,WUHU21623XXSP,2013-08-18 03:30:00,
2013-08-17 22:35:00,69.8,65.4,30.08,NNE,26,2.9,6.7,86,0.00,,,0.08,WUHU21623XXSP,2013-08-18 03:35:00,
2013-08-17 22:40:00,69.8,65.4,30.08,NE,52,0.9,5.6,86,0.00,,,0.08,WUHU21623XXSP,2013-08-18 03:40:00,
2013-08-17 22:45:00,69.8,65.4,30.08,NE,45,6.5,6.5,86,0.00,,,0.08,WUHU21623XXSP,2013-08-18 03:45:00,
2013-08-17 22:50:00,69.6,65.6,30.08,NE,50,1.1,6.5,87,0.00,,,0.08,WUHU21623XXSP,2013-08-18 03:50:00,
2013-08-17 22:55:00,69.6,65.6,30.08,NE,45,0.0,4.0,87,0.00,,,0.08,WUHU21623XXSP,2013-08-18 03:55:00,
2013-08-17 23:00:00,69.6,65.6,30.09,ENE,67,0.0,0.0,87,0.00,,,0.08,WUHU21623XXSP,2013-08-18 04:00:00,
2013-08-17 23:01:00,69.6,65.6,30.09,ENE,67,0.0,0.0,87,0.00,,,0.08,WUHU21623XXSP,2013-08-18 04:01:00,
2013-08-17 23:06:00,69.6,65.6,30.09,SE,135,0.0,0.0,87,0.00,,,0.08,WUHU21623XXSP,2013-08-18 04:06:00,
2013-08-17 23:11:00,69.6,65.6,30.09,SE,135,0.0,0.0,87,0.00,,,0.08,WUHU21623XXSP,2013-08-18 04:11:00,
2013-08-17 23:16:00,69.6,65.6,30.09,SE,135,0.0,0.0,87,0.00,,,0.08,WUHU21623XXSP,2013-08-18 04:16:00,
2013-08-17 23:21:00,69.6,65.6,30.09,SE,135,0.0,0.0,87,0.00,,,0.08,WUHU21623XXSP,2013-08-18 04:21:00,
2013-08-17 23:26:00,69.6,65.6,30.09,SE,135,0.0,0.0,87,0.00,,,0.08,WUHU21623XXSP,2013-08-18 04:26:00,
2013-08-17 23:31:00,69.6,65.6,30.09,ENE,67,0.0,0.0,87,0.00,,,0.08,WUHU21623XXSP,2013-08-18 04:31:00,
2013-08-17 23:36:00,69.6,65.6,30.09,ESE,112,0.0,0.0,87,0.00,,,0.08,WUHU21623XXSP,2013-08-18 04:36:00,
2013-08-17 23:41:00,69.6,65.6,30.09,ESE,112,0.0,0.0,87,0.00,,,0.08,WUHU21623XXSP,2013-08-18 04:41:00,
2013-08-17 23:46:00,69.6,65.6,30.09,ESE,112,0.0,0.0,87,0.00,,,0.08,WUHU21623XXSP,2013-08-18 04:46:00,
2013-08-17 23:51:00,69.6,65.6,30.09,SSE,157,0.0,0.0,87,0.00,,,0.08,WUHU21623XXSP,2013-08-18 04:51:00,
2013-08-17 23:56:00,69.6,65.6,30.09,ESE,112,0.0,0.0,87,0.00,,,0.08,WUHU21623XXSP,2013-08-18 04:56:00,